sensor_id;sensor_type;location;lat;lon;timestamp;pressure;altitude;pressure_sealevel;temperature;humidity
40992;BME280;29633;49.168;9.848;2022-10-19T00:01:08;97845.25;;;20.11;66.65
40992;BME280;29633;49.168;9.848;2022-10-19T00:03:35;97842.63;;;20.11;66.40
40992;BME280;29633;49.168;9.848;2022-10-19T00:06:19;97851.31;;;20.11;66.51
40992;BME280;29633;49.168;9.848;2022-10-19T00:09:11;97848.03;;;20.09;66.65
40992;BME280;29633;49.168;9.848;2022-10-19T00:11:40;97851.31;;;20.11;66.56
40992;BME280;29633;49.168;9.848;2022-10-19T00:14:08;97853.16;;;20.11;66.44
40992;BME280;29633;49.168;9.848;2022-10-19T00:16:37;97853.16;;;20.11;66.59
40992;BME280;29633;49.168;9.848;2022-10-19T00:19:06;97849.84;;;20.09;66.64
40992;BME280;29633;49.168;9.848;2022-10-19T00:21:32;97847.22;;;20.09;66.60
40992;BME280;29633;49.168;9.848;2022-10-19T00:23:58;97848.19;;;20.08;66.27
40992;BME280;29633;49.168;9.848;2022-10-19T00:26:24;97846.56;;;20.07;66.56
40992;BME280;29633;49.168;9.848;2022-10-19T00:28:52;97846.56;;;20.07;66.45
40992;BME280;29633;49.168;9.848;2022-10-19T00:31:17;97852.13;;;20.04;66.36
40992;BME280;29633;49.168;9.848;2022-10-19T00:33:44;97840.91;;;20.02;66.53
40992;BME280;29633;49.168;9.848;2022-10-19T00:38:47;97858.38;;;20.03;66.84
40992;BME280;29633;49.168;9.848;2022-10-19T00:41:14;97853.94;;;20.03;66.78
40992;BME280;29633;49.168;9.848;2022-10-19T00:46:19;97856.41;;;20.05;66.72
40992;BME280;29633;49.168;9.848;2022-10-19T00:48:44;97858.06;;;20.06;66.65
40992;BME280;29633;49.168;9.848;2022-10-19T00:51:10;97848.69;;;20.03;66.72
40992;BME280;29633;49.168;9.848;2022-10-19T00:53:36;97842.41;;;20.04;66.77
40992;BME280;29633;49.168;9.848;2022-10-19T00:56:04;97837.97;;;20.05;66.97
40992;BME280;29633;49.168;9.848;2022-10-19T00:58:32;97836.34;;;20.04;66.89
40992;BME280;29633;49.168;9.848;2022-10-19T01:01:00;97832.88;;;20.03;66.79
40992;BME280;29633;49.168;9.848;2022-10-19T01:03:27;97829.72;;;20.00;66.62
40992;BME280;29633;49.168;9.848;2022-10-19T01:05:53;97832.38;;;20.00;66.82
40992;BME280;29633;49.168;9.848;2022-10-19T01:08:19;97839.91;;;19.95;66.92
40992;BME280;29633;49.168;9.848;2022-10-19T01:13:39;97838.34;;;19.84;66.97
40992;BME280;29633;49.168;9.848;2022-10-19T01:19:09;97841.44;;;19.80;67.04
40992;BME280;29633;49.168;9.848;2022-10-19T01:21:40;97837.00;;;19.80;67.25
40992;BME280;29633;49.168;9.848;2022-10-19T01:32:25;97834.00;;;19.75;67.15
40992;BME280;29633;49.168;9.848;2022-10-19T01:35:11;97822.97;;;19.72;67.24
40992;BME280;29633;49.168;9.848;2022-10-19T01:37:48;97811.78;;;19.70;67.29
40992;BME280;29633;49.168;9.848;2022-10-19T01:40:29;97811.78;;;19.70;67.03
40992;BME280;29633;49.168;9.848;2022-10-19T01:43:07;97807.50;;;19.69;67.18
40992;BME280;29633;49.168;9.848;2022-10-19T01:45:42;97807.50;;;19.69;67.27
40992;BME280;29633;49.168;9.848;2022-10-19T01:48:20;97803.38;;;19.66;67.24
40992;BME280;29633;49.168;9.848;2022-10-19T01:51:02;97808.94;;;19.63;67.21
40992;BME280;29633;49.168;9.848;2022-10-19T01:53:33;97806.47;;;19.61;67.45
40992;BME280;29633;49.168;9.848;2022-10-19T01:56:02;97807.47;;;19.60;67.20
40992;BME280;29633;49.168;9.848;2022-10-19T01:58:30;97807.09;;;19.55;67.18
40992;BME280;29633;49.168;9.848;2022-10-19T02:00:59;97798.50;;;19.53;67.03
40992;BME280;29633;49.168;9.848;2022-10-19T02:03:27;97804.91;;;19.51;67.15
40992;BME280;29633;49.168;9.848;2022-10-19T02:05:53;97797.84;;;19.51;67.21
40992;BME280;29633;49.168;9.848;2022-10-19T02:08:24;97793.88;;;19.47;67.05
40992;BME280;29633;49.168;9.848;2022-10-19T02:10:52;97796.94;;;19.43;67.31
40992;BME280;29633;49.168;9.848;2022-10-19T02:13:19;97793.53;;;19.42;67.11
40992;BME280;29633;49.168;9.848;2022-10-19T02:15:46;97798.06;;;19.40;67.47
40992;BME280;29633;49.168;9.848;2022-10-19T02:18:17;97793.94;;;19.38;67.27
40992;BME280;29633;49.168;9.848;2022-10-19T02:20:45;97788.81;;;19.36;67.49
40992;BME280;29633;49.168;9.848;2022-10-19T02:23:11;97790.94;;;19.33;67.62
40992;BME280;29633;49.168;9.848;2022-10-19T02:25:37;97787.63;;;19.31;67.52
40992;BME280;29633;49.168;9.848;2022-10-19T02:28:03;97782.53;;;19.29;67.32
40992;BME280;29633;49.168;9.848;2022-10-19T02:30:29;97774.94;;;19.26;67.44
40992;BME280;29633;49.168;9.848;2022-10-19T02:32:55;97779.38;;;19.26;67.48
40992;BME280;29633;49.168;9.848;2022-10-19T02:35:21;97772.47;;;19.25;67.39
40992;BME280;29633;49.168;9.848;2022-10-19T02:37:47;97777.19;;;19.21;67.44
40992;BME280;29633;49.168;9.848;2022-10-19T02:40:13;97774.72;;;19.20;67.60
40992;BME280;29633;49.168;9.848;2022-10-19T02:45:25;97771.72;;;19.14;67.42
40992;BME280;29633;49.168;9.848;2022-10-19T02:48:07;97764.16;;;19.11;67.65
40992;BME280;29633;49.168;9.848;2022-10-19T02:50:35;97764.28;;;19.10;67.30
40992;BME280;29633;49.168;9.848;2022-10-19T02:53:01;97760.16;;;19.07;67.49
40992;BME280;29633;49.168;9.848;2022-10-19T02:55:28;97749.81;;;19.06;67.52
40992;BME280;29633;49.168;9.848;2022-10-19T02:57:54;97751.75;;;19.04;67.27
40992;BME280;29633;49.168;9.848;2022-10-19T03:00:21;97748.47;;;19.02;67.46
40992;BME280;29633;49.168;9.848;2022-10-19T03:02:47;97746.16;;;18.99;67.56
40992;BME280;29633;49.168;9.848;2022-10-19T03:05:13;97746.28;;;18.97;67.16
40992;BME280;29633;49.168;9.848;2022-10-19T03:07:38;97748.41;;;18.94;67.39
40992;BME280;29633;49.168;9.848;2022-10-19T03:10:04;97745.91;;;18.92;67.40
40992;BME280;29633;49.168;9.848;2022-10-19T03:12:30;97745.25;;;18.90;67.22
40992;BME280;29633;49.168;9.848;2022-10-19T03:14:55;97741.13;;;18.88;67.28
40992;BME280;29633;49.168;9.848;2022-10-19T03:17:21;97744.03;;;18.85;67.14
40992;BME280;29633;49.168;9.848;2022-10-19T03:19:47;97746.00;;;18.83;67.22
40992;BME280;29633;49.168;9.848;2022-10-19T03:22:13;97745.34;;;18.81;67.26
40992;BME280;29633;49.168;9.848;2022-10-19T03:24:39;97749.06;;;18.78;67.07
40992;BME280;29633;49.168;9.848;2022-10-19T03:27:05;97742.19;;;18.77;67.08
40992;BME280;29633;49.168;9.848;2022-10-19T03:29:30;97745.09;;;18.74;67.06
40992;BME280;29633;49.168;9.848;2022-10-19T03:31:56;97746.91;;;18.74;67.34
40992;BME280;29633;49.168;9.848;2022-10-19T03:34:22;97747.88;;;18.73;67.04
40992;BME280;29633;49.168;9.848;2022-10-19T03:36:47;97739.31;;;18.71;67.30
40992;BME280;29633;49.168;9.848;2022-10-19T03:39:14;97749.16;;;18.68;67.10
40992;BME280;29633;49.168;9.848;2022-10-19T03:41:40;97746.97;;;18.64;67.19
40992;BME280;29633;49.168;9.848;2022-10-19T03:44:07;97749.25;;;18.59;67.33
40992;BME280;29633;49.168;9.848;2022-10-19T03:46:33;97747.88;;;18.55;67.49
40992;BME280;29633;49.168;9.848;2022-10-19T03:49:00;97741.81;;;18.54;67.51
40992;BME280;29633;49.168;9.848;2022-10-19T03:51:27;97743.72;;;18.52;67.33
40992;BME280;29633;49.168;9.848;2022-10-19T03:53:57;97761.31;;;18.52;67.37
40992;BME280;29633;49.168;9.848;2022-10-19T03:56:24;97747.47;;;18.50;67.31
40992;BME280;29633;49.168;9.848;2022-10-19T03:58:52;97752.72;;;18.50;67.26
40992;BME280;29633;49.168;9.848;2022-10-19T04:01:21;97750.91;;;18.50;67.49
40992;BME280;29633;49.168;9.848;2022-10-19T04:03:51;97756.16;;;18.50;67.42
40992;BME280;29633;49.168;9.848;2022-10-19T04:06:17;97754.50;;;18.49;67.31
40992;BME280;29633;49.168;9.848;2022-10-19T04:08:44;97758.94;;;18.49;67.34
40992;BME280;29633;49.168;9.848;2022-10-19T04:11:13;97753.69;;;18.49;67.39
40992;BME280;29633;49.168;9.848;2022-10-19T04:13:40;97745.97;;;18.47;67.54
40992;BME280;29633;49.168;9.848;2022-10-19T04:16:06;97749.56;;;18.46;67.37
40992;BME280;29633;49.168;9.848;2022-10-19T04:18:32;97761.19;;;18.44;67.45
40992;BME280;29633;49.168;9.848;2022-10-19T04:21:02;97751.00;;;18.41;67.33
40992;BME280;29633;49.168;9.848;2022-10-19T04:23:30;97765.91;;;18.40;67.57
40992;BME280;29633;49.168;9.848;2022-10-19T04:26:06;97755.72;;;18.37;67.43
40992;BME280;29633;49.168;9.848;2022-10-19T04:28:33;97757.63;;;18.35;67.62
40992;BME280;29633;49.168;9.848;2022-10-19T04:31:03;97763.59;;;18.37;67.60
40992;BME280;29633;49.168;9.848;2022-10-19T04:33:28;97767.84;;;18.38;67.61
40992;BME280;29633;49.168;9.848;2022-10-19T04:35:58;97766.88;;;18.39;67.71
40992;BME280;29633;49.168;9.848;2022-10-19T04:38:24;97765.22;;;18.38;67.57
40992;BME280;29633;49.168;9.848;2022-10-19T04:40:49;97768.66;;;18.39;67.60
40992;BME280;29633;49.168;9.848;2022-10-19T04:43:15;97768.53;;;18.40;67.38
40992;BME280;29633;49.168;9.848;2022-10-19T04:45:41;97762.28;;;18.41;67.50
40992;BME280;29633;49.168;9.848;2022-10-19T04:48:06;97753.44;;;18.42;67.47
40992;BME280;29633;49.168;9.848;2022-10-19T04:50:32;97756.91;;;18.43;67.56
40992;BME280;29633;49.168;9.848;2022-10-19T04:52:58;97760.34;;;18.43;67.47
40992;BME280;29633;49.168;9.848;2022-10-19T04:55:23;97762.16;;;18.43;67.64
40992;BME280;29633;49.168;9.848;2022-10-19T04:57:49;97751.78;;;18.41;67.70
40992;BME280;29633;49.168;9.848;2022-10-19T05:00:15;97751.94;;;18.40;67.56
40992;BME280;29633;49.168;9.848;2022-10-19T05:02:44;97745.88;;;18.39;67.46
40992;BME280;29633;49.168;9.848;2022-10-19T05:05:11;97747.53;;;18.40;67.50
40992;BME280;29633;49.168;9.848;2022-10-19T05:07:37;97746.69;;;18.40;67.78
40992;BME280;29633;49.168;9.848;2022-10-19T05:10:03;97751.00;;;18.41;67.62
40992;BME280;29633;49.168;9.848;2022-10-19T05:12:29;97750.81;;;18.42;67.64
40992;BME280;29633;49.168;9.848;2022-10-19T05:14:54;97751.53;;;18.44;67.46
40992;BME280;29633;49.168;9.848;2022-10-19T05:17:20;97746.28;;;18.44;67.41
40992;BME280;29633;49.168;9.848;2022-10-19T05:19:47;97749.56;;;18.46;67.65
40992;BME280;29633;49.168;9.848;2022-10-19T05:22:12;97752.03;;;18.48;67.65
40992;BME280;29633;49.168;9.848;2022-10-19T05:24:38;97746.78;;;18.48;67.38
40992;BME280;29633;49.168;9.848;2022-10-19T05:27:03;97748.72;;;18.46;67.70
40992;BME280;29633;49.168;9.848;2022-10-19T05:29:29;97752.47;;;18.43;67.51
40992;BME280;29633;49.168;9.848;2022-10-19T05:31:55;97757.72;;;18.43;67.76
40992;BME280;29633;49.168;9.848;2022-10-19T05:34:20;97755.78;;;18.45;67.49
40992;BME280;29633;49.168;9.848;2022-10-19T05:36:46;97758.56;;;18.44;67.69
40992;BME280;29633;49.168;9.848;2022-10-19T05:39:14;97752.34;;;18.45;67.68
40992;BME280;29633;49.168;9.848;2022-10-19T05:41:44;97746.94;;;18.46;67.47
40992;BME280;29633;49.168;9.848;2022-10-19T05:44:18;97745.00;;;18.48;67.75
40992;BME280;29633;49.168;9.848;2022-10-19T05:46:45;97731.03;;;18.48;67.70
40992;BME280;29633;49.168;9.848;2022-10-19T05:49:11;97734.50;;;18.48;67.61
40992;BME280;29633;49.168;9.848;2022-10-19T05:51:38;97739.47;;;18.51;67.70
40992;BME280;29633;49.168;9.848;2022-10-19T05:54:04;97731.59;;;18.51;67.43
40992;BME280;29633;49.168;9.848;2022-10-19T05:56:31;97730.47;;;18.54;67.65
40992;BME280;29633;49.168;9.848;2022-10-19T05:59:01;97725.06;;;18.55;67.71
40992;BME280;29633;49.168;9.848;2022-10-19T06:01:27;97732.66;;;18.58;67.46
40992;BME280;29633;49.168;9.848;2022-10-19T06:03:54;97722.81;;;18.60;67.34
40992;BME280;29633;49.168;9.848;2022-10-19T06:06:21;97728.75;;;18.62;67.49
40992;BME280;29633;49.168;9.848;2022-10-19T06:08:47;97731.38;;;18.62;67.46
40992;BME280;29633;49.168;9.848;2022-10-19T06:11:26;97727.75;;;18.63;67.37
40992;BME280;29633;49.168;9.848;2022-10-19T06:13:54;97724.16;;;18.64;67.70
40992;BME280;29633;49.168;9.848;2022-10-19T06:16:21;97729.28;;;18.66;67.63
40992;BME280;29633;49.168;9.848;2022-10-19T06:18:48;97730.91;;;18.67;67.75
40992;BME280;29633;49.168;9.848;2022-10-19T06:21:16;97727.00;;;18.71;67.50
40992;BME280;29633;49.168;9.848;2022-10-19T06:23:42;97722.59;;;18.72;67.52
40992;BME280;29633;49.168;9.848;2022-10-19T06:26:09;97726.72;;;18.74;67.45
40992;BME280;29633;49.168;9.848;2022-10-19T06:28:36;97730.03;;;18.76;67.56
40992;BME280;29633;49.168;9.848;2022-10-19T06:31:02;97728.06;;;18.78;67.29
40992;BME280;29633;49.168;9.848;2022-10-19T06:33:28;97731.50;;;18.79;67.47
40992;BME280;29633;49.168;9.848;2022-10-19T06:36:09;97737.75;;;18.78;67.72
40992;BME280;29633;49.168;9.848;2022-10-19T06:38:36;97736.78;;;18.79;67.54
40992;BME280;29633;49.168;9.848;2022-10-19T06:41:01;97735.94;;;18.78;67.69
40992;BME280;29633;49.168;9.848;2022-10-19T06:43:27;97738.44;;;18.80;67.75
40992;BME280;29633;49.168;9.848;2022-10-19T06:45:53;97734.00;;;18.80;67.79
40992;BME280;29633;49.168;9.848;2022-10-19T06:48:19;97738.94;;;18.83;67.71
40992;BME280;29633;49.168;9.848;2022-10-19T06:50:47;97748.03;;;18.89;67.52
40992;BME280;29633;49.168;9.848;2022-10-19T06:53:19;97751.34;;;18.91;67.63
40992;BME280;29633;49.168;9.848;2022-10-19T06:55:45;97751.03;;;18.94;67.83
40992;BME280;29633;49.168;9.848;2022-10-19T06:58:11;97756.66;;;18.99;67.64
40992;BME280;29633;49.168;9.848;2022-10-19T07:00:36;97761.44;;;19.03;67.44
40992;BME280;29633;49.168;9.848;2022-10-19T07:03:02;97756.88;;;19.05;67.49
40992;BME280;29633;49.168;9.848;2022-10-19T07:05:28;97761.84;;;19.08;67.71
40992;BME280;29633;49.168;9.848;2022-10-19T07:07:53;97760.38;;;19.14;67.40
40992;BME280;29633;49.168;9.848;2022-10-19T07:10:19;97764.53;;;19.16;67.65
40992;BME280;29633;49.168;9.848;2022-10-19T07:12:44;97768.66;;;19.19;67.48
40992;BME280;29633;49.168;9.848;2022-10-19T07:15:10;97765.88;;;19.21;67.67
40992;BME280;29633;49.168;9.848;2022-10-19T07:17:36;97765.56;;;19.24;67.55
40992;BME280;29633;49.168;9.848;2022-10-19T07:20:01;97769.69;;;19.26;67.58
40992;BME280;29633;49.168;9.848;2022-10-19T07:22:27;97766.75;;;19.29;67.58
40992;BME280;29633;49.168;9.848;2022-10-19T07:24:53;97762.97;;;19.32;67.93
40992;BME280;29633;49.168;9.848;2022-10-19T07:27:19;97763.22;;;19.38;67.86
40992;BME280;29633;49.168;9.848;2022-10-19T07:29:44;97759.84;;;19.46;67.56
40992;BME280;29633;49.168;9.848;2022-10-19T07:32:10;97762.50;;;19.54;67.73
40992;BME280;29633;49.168;9.848;2022-10-19T07:34:35;97760.63;;;19.64;67.40
40992;BME280;29633;49.168;9.848;2022-10-19T07:37:01;97757.34;;;19.70;67.50
40992;BME280;29633;49.168;9.848;2022-10-19T07:39:27;97756.91;;;19.75;67.25
40992;BME280;29633;49.168;9.848;2022-10-19T07:41:52;97761.00;;;19.77;67.13
40992;BME280;29633;49.168;9.848;2022-10-19T07:44:18;97756.59;;;19.78;67.35
40992;BME280;29633;49.168;9.848;2022-10-19T07:46:44;97753.94;;;19.78;67.28
40992;BME280;29633;49.168;9.848;2022-10-19T07:49:12;97761.16;;;19.76;67.76
40992;BME280;29633;49.168;9.848;2022-10-19T07:51:39;97762.00;;;19.76;67.56
40992;BME280;29633;49.168;9.848;2022-10-19T07:54:05;97763.31;;;19.80;67.27
40992;BME280;29633;49.168;9.848;2022-10-19T07:56:31;97760.56;;;19.82;67.41
40992;BME280;29633;49.168;9.848;2022-10-19T07:58:57;97755.94;;;19.84;67.66
40992;BME280;29633;49.168;9.848;2022-10-19T08:01:29;97754.66;;;19.88;67.43
40992;BME280;29633;49.168;9.848;2022-10-19T08:03:56;97759.59;;;19.91;67.79
40992;BME280;29633;49.168;9.848;2022-10-19T08:06:22;97760.94;;;19.95;67.34
40992;BME280;29633;49.168;9.848;2022-10-19T08:08:49;97755.81;;;19.93;67.46
40992;BME280;29633;49.168;9.848;2022-10-19T08:11:16;97752.38;;;19.93;67.49
40992;BME280;29633;49.168;9.848;2022-10-19T08:13:42;97761.09;;;19.93;67.42
40992;BME280;29633;49.168;9.848;2022-10-19T08:18:55;97764.91;;;19.99;67.65
40992;BME280;29633;49.168;9.848;2022-10-19T08:21:21;97754.94;;;20.10;67.28
40992;BME280;29633;49.168;9.848;2022-10-19T08:23:46;97756.91;;;20.17;67.26
40992;BME280;29633;49.168;9.848;2022-10-19T08:26:12;97755.94;;;20.18;67.12
40992;BME280;29633;49.168;9.848;2022-10-19T08:28:38;97759.41;;;20.18;67.41
40992;BME280;29633;49.168;9.848;2022-10-19T08:31:12;97758.06;;;20.22;67.13
40992;BME280;29633;49.168;9.848;2022-10-19T08:33:38;97766.34;;;20.27;67.17
40992;BME280;29633;49.168;9.848;2022-10-19T08:36:08;97761.78;;;20.29;67.11
40992;BME280;29633;49.168;9.848;2022-10-19T08:38:35;97768.66;;;20.30;67.34
40992;BME280;29633;49.168;9.848;2022-10-19T08:41:20;97769.81;;;20.28;67.21
40992;BME280;29633;49.168;9.848;2022-10-19T08:49:41;97766.66;;;20.24;67.41
40992;BME280;29633;49.168;9.848;2022-10-19T08:52:22;97767.47;;;20.25;67.48
40992;BME280;29633;49.168;9.848;2022-10-19T08:54:51;97758.44;;;20.27;67.47
40992;BME280;29633;49.168;9.848;2022-10-19T08:57:49;97762.03;;;20.26;67.77
40992;BME280;29633;49.168;9.848;2022-10-19T09:00:41;97767.19;;;20.28;67.47
40992;BME280;29633;49.168;9.848;2022-10-19T09:03:15;97763.41;;;20.30;67.61
40992;BME280;29633;49.168;9.848;2022-10-19T09:08:26;97759.72;;;20.23;67.60
40992;BME280;29633;49.168;9.848;2022-10-19T09:10:52;97768.59;;;20.22;67.62
40992;BME280;29633;49.168;9.848;2022-10-19T09:13:33;97763.34;;;20.22;67.52
40992;BME280;29633;49.168;9.848;2022-10-19T09:16:00;97769.75;;;20.20;67.72
40992;BME280;29633;49.168;9.848;2022-10-19T09:18:29;97758.72;;;20.16;67.38
40992;BME280;29633;49.168;9.848;2022-10-19T09:21:03;97763.66;;;20.19;67.70
40992;BME280;29633;49.168;9.848;2022-10-19T09:23:52;97763.00;;;20.17;67.46
40992;BME280;29633;49.168;9.848;2022-10-19T09:26:21;97759.88;;;20.13;67.53
40992;BME280;29633;49.168;9.848;2022-10-19T09:31:37;97760.19;;;20.19;67.70
40992;BME280;29633;49.168;9.848;2022-10-19T09:34:25;97755.75;;;20.19;67.51
40992;BME280;29633;49.168;9.848;2022-10-19T09:36:58;97760.69;;;20.14;67.44
40992;BME280;29633;49.168;9.848;2022-10-19T09:39:25;97765.28;;;20.12;67.68
40992;BME280;29633;49.168;9.848;2022-10-19T09:41:58;97762.66;;;20.12;67.82
40992;BME280;29633;49.168;9.848;2022-10-19T09:44:29;97764.63;;;20.10;67.61
40992;BME280;29633;49.168;9.848;2022-10-19T09:49:44;97763.78;;;20.09;67.41
40992;BME280;29633;49.168;9.848;2022-10-19T09:52:31;97758.03;;;20.06;67.44
40992;BME280;29633;49.168;9.848;2022-10-19T09:55:03;97754.75;;;20.04;67.68
40992;BME280;29633;49.168;9.848;2022-10-19T09:57:29;97759.84;;;20.05;67.64
40992;BME280;29633;49.168;9.848;2022-10-19T09:59:55;97757.88;;;20.07;67.39
40992;BME280;29633;49.168;9.848;2022-10-19T10:02:31;97756.72;;;20.10;67.27
40992;BME280;29633;49.168;9.848;2022-10-19T10:05:13;97749.81;;;20.09;67.62
40992;BME280;29633;49.168;9.848;2022-10-19T10:07:39;97752.44;;;20.09;67.37
40992;BME280;29633;49.168;9.848;2022-10-19T10:10:10;97754.94;;;20.10;67.47
40992;BME280;29633;49.168;9.848;2022-10-19T10:12:43;97752.63;;;20.15;67.37
40992;BME280;29633;49.168;9.848;2022-10-19T10:15:17;97754.28;;;20.17;67.35
40992;BME280;29633;49.168;9.848;2022-10-19T10:17:46;97752.47;;;20.17;67.44
40992;BME280;29633;49.168;9.848;2022-10-19T10:20:21;97752.16;;;20.20;67.56
40992;BME280;29633;49.168;9.848;2022-10-19T10:22:53;97746.56;;;20.23;67.76
40992;BME280;29633;49.168;9.848;2022-10-19T10:25:24;97749.69;;;20.27;67.56
40992;BME280;29633;49.168;9.848;2022-10-19T10:27:56;97746.47;;;20.33;67.58
40992;BME280;29633;49.168;9.848;2022-10-19T10:30:23;97743.34;;;20.37;67.37
40992;BME280;29633;49.168;9.848;2022-10-19T10:32:51;97740.38;;;20.40;67.52
40992;BME280;29633;49.168;9.848;2022-10-19T10:35:20;97738.94;;;20.46;67.42
40992;BME280;29633;49.168;9.848;2022-10-19T10:37:47;97736.81;;;20.49;67.33
40992;BME280;29633;49.168;9.848;2022-10-19T10:42:45;97722.81;;;20.57;67.18
40992;BME280;29633;49.168;9.848;2022-10-19T10:45:19;97724.16;;;20.61;67.47
40992;BME280;29633;49.168;9.848;2022-10-19T10:47:47;97719.19;;;20.66;67.52
40992;BME280;29633;49.168;9.848;2022-10-19T10:50:23;97710.81;;;20.71;67.63
40992;BME280;29633;49.168;9.848;2022-10-19T10:53:01;97719.06;;;20.76;67.31
40992;BME280;29633;49.168;9.848;2022-10-19T10:55:28;97713.97;;;20.82;67.48
40992;BME280;29633;49.168;9.848;2022-10-19T10:58:14;97708.84;;;20.89;67.30
40992;BME280;29633;49.168;9.848;2022-10-19T11:00:41;97711.63;;;20.95;67.43
40992;BME280;29633;49.168;9.848;2022-10-19T11:03:15;97702.06;;;21.02;67.21
40992;BME280;29633;49.168;9.848;2022-10-19T11:05:47;97698.81;;;21.08;67.04
40992;BME280;29633;49.168;9.848;2022-10-19T11:10:50;97706.72;;;21.17;67.14
40992;BME280;29633;49.168;9.848;2022-10-19T11:13:32;97699.97;;;21.22;66.97
40992;BME280;29633;49.168;9.848;2022-10-19T11:16:12;97697.47;;;21.29;67.30
40992;BME280;29633;49.168;9.848;2022-10-19T11:18:45;97691.38;;;21.36;66.94
40992;BME280;29633;49.168;9.848;2022-10-19T11:21:17;97691.50;;;21.43;67.04
40992;BME280;29633;49.168;9.848;2022-10-19T11:29:53;97686.63;;;21.71;66.83
40992;BME280;29633;49.168;9.848;2022-10-19T11:32:41;97688.06;;;21.81;66.82
40992;BME280;29633;49.168;9.848;2022-10-19T11:40:42;97682.16;;;22.18;66.89
40992;BME280;29633;49.168;9.848;2022-10-19T12:00:09;97637.69;;;23.13;66.70
40992;BME280;29633;49.168;9.848;2022-10-19T12:03:02;97631.13;;;23.23;66.79
40992;BME280;29633;49.168;9.848;2022-10-19T12:11:48;97616.75;;;23.55;66.60
40992;BME280;29633;49.168;9.848;2022-10-19T12:14:27;97609.81;;;23.69;66.77
40992;BME280;29633;49.168;9.848;2022-10-19T12:16:57;97598.53;;;23.81;66.96
40992;BME280;29633;49.168;9.848;2022-10-19T12:19:48;97600.78;;;23.99;66.74
40992;BME280;29633;49.168;9.848;2022-10-19T12:22:18;97599.47;;;24.10;66.84
40992;BME280;29633;49.168;9.848;2022-10-19T12:24:45;97587.56;;;24.20;66.90
40992;BME280;29633;49.168;9.848;2022-10-19T12:27:12;97586.91;;;24.33;66.54
40992;BME280;29633;49.168;9.848;2022-10-19T12:29:42;97590.09;;;24.49;66.69
40992;BME280;29633;49.168;9.848;2022-10-19T12:32:12;97584.72;;;24.64;66.58
40992;BME280;29633;49.168;9.848;2022-10-19T12:35:07;97587.72;;;24.82;66.44
40992;BME280;29633;49.168;9.848;2022-10-19T12:37:43;97577.47;;;25.01;66.33
40992;BME280;29633;49.168;9.848;2022-10-19T12:43:07;97573.25;;;25.47;65.74
40992;BME280;29633;49.168;9.848;2022-10-19T12:45:49;97571.88;;;25.58;65.86
40992;BME280;29633;49.168;9.848;2022-10-19T12:48:18;97562.94;;;25.65;65.94
40992;BME280;29633;49.168;9.848;2022-10-19T13:01:08;97553.06;;;26.13;66.39
40992;BME280;29633;49.168;9.848;2022-10-19T13:03:37;97553.91;;;26.27;66.41
40992;BME280;29633;49.168;9.848;2022-10-19T13:06:16;97541.88;;;26.37;66.84
40992;BME280;29633;49.168;9.848;2022-10-19T13:08:47;97546.16;;;26.52;67.33
40992;BME280;29633;49.168;9.848;2022-10-19T13:11:20;97547.19;;;26.64;67.74
40992;BME280;29633;49.168;9.848;2022-10-19T13:35:24;97537.06;;;29.38;68.52
40992;BME280;29633;49.168;9.848;2022-10-19T13:43:26;97525.50;;;29.62;67.44
40992;BME280;29633;49.168;9.848;2022-10-19T13:46:13;97514.97;;;29.78;67.01
40992;BME280;29633;49.168;9.848;2022-10-19T13:58:19;97503.84;;;30.11;65.03
40992;BME280;29633;49.168;9.848;2022-10-19T14:00:20;97501.66;;;30.32;64.57
40992;BME280;29633;49.168;9.848;2022-10-19T14:03:11;97494.94;;;30.41;64.43
40992;BME280;29633;49.168;9.848;2022-10-19T14:06:01;97500.69;;;30.56;63.85
40992;BME280;29633;49.168;9.848;2022-10-19T14:16:53;97485.69;;;30.78;61.96
40992;BME280;29633;49.168;9.848;2022-10-19T14:19:27;97489.28;;;30.84;61.61
40992;BME280;29633;49.168;9.848;2022-10-19T14:21:58;97483.91;;;30.72;62.01
40992;BME280;29633;49.168;9.848;2022-10-19T14:24:33;97485.44;;;30.45;61.97
40992;BME280;29633;49.168;9.848;2022-10-19T14:27:01;97488.75;;;30.17;62.12
40992;BME280;29633;49.168;9.848;2022-10-19T14:29:41;97485.03;;;29.88;61.85
40992;BME280;29633;49.168;9.848;2022-10-19T14:32:09;97485.88;;;29.59;61.98
40992;BME280;29633;49.168;9.848;2022-10-19T14:34:45;97483.66;;;29.38;61.86
40992;BME280;29633;49.168;9.848;2022-10-19T14:37:16;97479.00;;;29.33;61.31
40992;BME280;29633;49.168;9.848;2022-10-19T14:42:41;97468.22;;;28.85;61.40
40992;BME280;29633;49.168;9.848;2022-10-19T14:45:19;97465.19;;;28.57;61.21
40992;BME280;29633;49.168;9.848;2022-10-19T14:47:56;97466.63;;;28.34;61.09
40992;BME280;29633;49.168;9.848;2022-10-19T14:51:06;97462.91;;;28.11;61.02
40992;BME280;29633;49.168;9.848;2022-10-19T14:55:40;97466.63;;;27.72;60.79
40992;BME280;29633;49.168;9.848;2022-10-19T14:58:11;97468.59;;;27.52;61.00
40992;BME280;29633;49.168;9.848;2022-10-19T15:00:38;97459.44;;;27.28;60.72
40992;BME280;29633;49.168;9.848;2022-10-19T15:03:05;97466.50;;;27.09;61.14
40992;BME280;29633;49.168;9.848;2022-10-19T15:05:33;97465.31;;;26.92;61.08
40992;BME280;29633;49.168;9.848;2022-10-19T15:08:36;97463.50;;;26.73;60.85
40992;BME280;29633;49.168;9.848;2022-10-19T15:10:55;97463.31;;;26.48;61.07
40992;BME280;29633;49.168;9.848;2022-10-19T15:13:25;97463.94;;;26.30;61.08
40992;BME280;29633;49.168;9.848;2022-10-19T15:15:53;97465.34;;;26.13;61.20
40992;BME280;29633;49.168;9.848;2022-10-19T15:18:24;97461.47;;;25.96;61.06
40992;BME280;29633;49.168;9.848;2022-10-19T15:21:09;97455.72;;;25.79;61.09
40992;BME280;29633;49.168;9.848;2022-10-19T15:23:40;97461.59;;;25.62;61.01
40992;BME280;29633;49.168;9.848;2022-10-19T15:28:41;97464.34;;;25.27;61.02
40992;BME280;29633;49.168;9.848;2022-10-19T15:31:18;97457.75;;;25.10;61.23
40992;BME280;29633;49.168;9.848;2022-10-19T15:33:56;97460.91;;;24.92;61.24
40992;BME280;29633;49.168;9.848;2022-10-19T15:36:22;97460.38;;;24.76;61.39
40992;BME280;29633;49.168;9.848;2022-10-19T15:38:59;97457.03;;;24.61;61.42